Lummen, Belgium
Current Conditions -  °F | °C
As of 8:25 PM on Sunday 21 Dec 2014 (Local Time) from EBDT Reporting Station
Overcast Overcast  
Wind Chill: 40°   Ceiling: 1400
Heat Index: 46°   Visibility: 6mi
Dew Point: 43°   Wind: 14mph
Humidity: 87%   Direction: 220°SW
Pressure: 30.27"   Gusts: NA
Location:  50.99°N, 5.19°E
Report Text: EBDT 211925Z AUTO 22012KT 9999 FEW011/// BKN014/// OVC018/// 08/06 Q1025 GRN
Loading
Personal Weather Stations






























Interactive Weather Map New forecast layout! Learn more

10-Day Weather Forecast

Advertisements
Track Severe Weather on mobile